Time;durP1;ratioP1;P1;durP2;ratioP2;P2;SDS_P1;SDS_P2;PMS_P1;PMS_P2;Temp;Humidity;BMP_temperature;BMP_pressure;BME280_temperature;BME280_humidity;BME280_pressure;Samples;Min_cycle;Max_cycle;Signal;HPM_P1;HPM_P2
2022/12/13 05:00:28;;;;;;;1999.90;999.90;;;-6.80;99.90;;;;;;5969080;22;20017;-78
2022/12/13 05:02:53;;;;;;;1999.90;999.90;;;-6.90;99.90;;;;;;4982249;28;20042;-78
2022/12/13 05:05:19;;;;;;;1999.90;999.90;;;-6.80;99.90;;;;;;4996170;28;20098;-78
2022/12/13 05:07:45;;;;;;;1999.90;999.90;;;-6.80;99.90;;;;;;4980943;28;20039;-78
2022/12/13 05:10:10;;;;;;;1999.90;999.90;;;-7.00;99.90;;;;;;4977094;28;20118;-78
2022/12/13 05:12:36;;;;;;;1999.90;999.90;;;-6.90;99.90;;;;;;4975951;28;20075;-76
2022/12/13 05:15:01;;;;;;;1999.90;999.90;;;-6.90;99.90;;;;;;4974349;28;20043;-77
2022/12/13 05:17:27;;;;;;;1999.90;999.90;;;-6.90;99.90;;;;;;4965240;28;20040;-76
2022/12/13 05:19:55;;;;;;;1999.90;999.90;;;-7.00;99.90;;;;;;4956866;28;20044;-76
2022/12/13 05:22:21;;;;;;;1999.90;999.90;;;-7.00;99.90;;;;;;4959134;28;20438;-76
2022/12/13 05:24:47;;;;;;;1999.90;999.90;;;-7.00;99.90;;;;;;4957364;28;20039;-76
2022/12/13 05:27:12;;;;;;;1999.90;999.90;;;-7.00;99.90;;;;;;4957005;28;20046;-77
2022/12/13 05:29:38;;;;;;;1999.90;999.90;;;-7.00;99.90;;;;;;4955118;28;20082;-76
2022/12/13 05:32:07;;;;;;;1999.90;999.90;;;-7.00;99.90;;;;;;4956286;28;20112;-76
2022/12/13 05:34:32;;;;;;;1999.90;999.90;;;-6.90;99.90;;;;;;4955329;28;20043;-76
2022/12/13 05:36:58;;;;;;;1999.90;999.90;;;-6.90;99.90;;;;;;4956593;28;20040;-76
2022/12/13 05:39:23;;;;;;;1999.90;999.90;;;-6.90;99.90;;;;;;4956601;28;20039;-76
2022/12/13 05:41:49;;;;;;;1999.90;999.90;;;-6.80;99.90;;;;;;4956238;28;20076;-76
2022/12/13 05:44:14;;;;;;;1999.90;999.90;;;-6.90;99.90;;;;;;4956577;28;20047;-76
2022/12/13 05:46:40;;;;;;;1999.90;999.90;;;-6.80;99.90;;;;;;4956550;28;20098;-77
2022/12/13 05:49:06;;;;;;;1999.90;999.90;;;-6.70;99.90;;;;;;4977478;28;20039;-78
2022/12/13 05:51:31;;;;;;;1999.90;999.90;;;-6.70;99.90;;;;;;4980867;28;20040;-77
2022/12/13 05:53:57;;;;;;;1999.90;999.90;;;-6.80;99.90;;;;;;4956628;28;20035;-76
2022/12/13 05:56:22;;;;;;;1999.90;999.90;;;-6.90;99.90;;;;;;4958915;28;20040;-76
2022/12/13 05:58:48;;;;;;;1999.90;999.90;;;-6.90;99.90;;;;;;4956799;28;20036;-76
2022/12/13 06:01:17;;;;;;;1999.90;999.90;;;-7.00;99.90;;;;;;4956999;28;20044;-76
2022/12/13 06:03:42;;;;;;;1999.90;999.90;;;-7.00;99.90;;;;;;4959205;28;20490;-76
2022/12/13 06:06:10;;;;;;;1999.90;999.90;;;-7.10;99.90;;;;;;4956613;28;20047;-76
2022/12/13 06:08:36;;;;;;;1999.90;999.90;;;-7.10;99.90;;;;;;4956099;28;20046;-76
2022/12/13 06:11:03;;;;;;;1999.90;999.90;;;-7.10;99.90;;;;;;4955882;28;20419;-77
2022/12/13 06:13:28;;;;;;;1999.90;999.90;;;-7.10;99.90;;;;;;4956145;28;20034;-76
2022/12/13 06:16:03;;;;;;;1999.90;999.90;;;-7.00;99.90;;;;;;4956090;28;20040;-76
2022/12/13 06:18:33;;;;;;;1999.90;999.90;;;-7.00;99.90;;;;;;4956032;28;20087;-76
2022/12/13 06:21:01;;;;;;;1999.90;999.90;;;-7.20;99.90;;;;;;4955476;28;20099;-77
2022/12/13 06:23:29;;;;;;;1999.90;999.90;;;-7.20;99.90;;;;;;4955983;28;20111;-76
2022/12/13 06:25:55;;;;;;;1999.90;999.90;;;-7.30;99.90;;;;;;4955831;28;20032;-76
2022/12/13 06:28:20;;;;;;;1999.90;999.90;;;-7.20;99.90;;;;;;4959020;28;20031;-77
2022/12/13 06:30:46;;;;;;;1999.90;999.90;;;-7.30;99.90;;;;;;4958733;28;20122;-76
2022/12/13 06:33:11;;;;;;;1999.90;999.90;;;-7.20;99.90;;;;;;4959382;28;20127;-76
2022/12/13 06:35:37;;;;;;;1999.90;999.90;;;-7.20;99.90;;;;;;4957861;28;20043;-76
2022/12/13 06:38:03;;;;;;;1999.90;999.90;;;-7.20;99.90;;;;;;4957911;28;20036;-76
2022/12/13 06:40:30;;;;;;;1999.90;999.90;;;-7.20;99.90;;;;;;4958484;28;20031;-76
2022/12/13 06:42:55;;;;;;;1999.90;999.90;;;-7.20;99.90;;;;;;4959127;28;20090;-76
2022/12/13 06:45:21;;;;;;;1999.90;999.90;;;-7.20;99.90;;;;;;4958016;28;20495;-76
2022/12/13 06:47:47;;;;;;;1999.90;999.90;;;-7.10;99.90;;;;;;4959341;28;20152;-76
2022/12/13 06:50:13;;;;;;;1999.90;999.90;;;-7.10;99.90;;;;;;4958679;28;20378;-76
2022/12/13 06:52:38;;;;;;;1999.90;999.90;;;-7.10;99.90;;;;;;4959262;28;20028;-76
2022/12/13 06:55:04;;;;;;;1999.90;999.90;;;-7.10;99.90;;;;;;4957776;28;20046;-76
2022/12/13 06:57:32;;;;;;;1999.90;999.90;;;-7.20;99.90;;;;;;4959979;28;20139;-76
2022/12/13 06:59:58;;;;;;;1999.90;999.90;;;-7.20;99.90;;;;;;4957522;28;20529;-76
2022/12/13 07:02:24;;;;;;;1999.90;999.90;;;-7.30;99.90;;;;;;4959404;28;20431;-76
2022/12/13 07:04:49;;;;;;;1999.90;999.90;;;-7.20;99.90;;;;;;4958741;28;20056;-79
2022/12/13 07:07:15;;;;;;;1999.90;999.90;;;-7.20;99.90;;;;;;4959609;28;20044;-75
2022/12/13 07:09:40;;;;;;;1999.90;999.90;;;-7.10;99.90;;;;;;4958396;28;20046;-76
2022/12/13 07:12:06;;;;;;;1999.90;999.90;;;-7.10;99.90;;;;;;4959849;28;20032;-76
2022/12/13 07:14:32;;;;;;;1999.90;999.90;;;-7.10;99.90;;;;;;4959131;28;20087;-77
2022/12/13 07:16:58;;;;;;;1999.90;999.90;;;-7.10;99.90;;;;;;4959908;28;20039;-78
2022/12/13 07:19:23;;;;;;;1999.90;999.90;;;-7.00;99.90;;;;;;4960761;28;20047;-76
2022/12/13 07:21:49;;;;;;;1999.90;999.90;;;-7.00;99.90;;;;;;4959621;28;20044;-76
2022/12/13 07:24:14;;;;;;;1999.90;999.90;;;-7.00;99.90;;;;;;4964803;28;20039;-77
2022/12/13 07:26:40;;;;;;;1999.90;999.90;;;-7.00;99.90;;;;;;4961920;28;20512;-78
2022/12/13 07:29:05;;;;;;;1999.90;999.90;;;-7.10;99.90;;;;;;4962762;28;20455;-77
2022/12/13 07:31:34;;;;;;;1999.90;999.90;;;-7.00;99.90;;;;;;4958642;28;20040;-77
2022/12/13 07:34:00;;;;;;;1999.90;999.90;;;-7.00;99.90;;;;;;4961827;28;20032;-77
2022/12/13 07:36:26;;;;;;;1999.90;999.90;;;-6.90;99.90;;;;;;4961465;28;20046;-76
2022/12/13 07:38:53;;;;;;;1999.90;999.90;;;-6.90;99.90;;;;;;4961860;28;20031;-77
2022/12/13 07:41:19;;;;;;;1999.90;999.90;;;-6.90;99.90;;;;;;4961573;28;20040;-77
2022/12/13 07:43:45;;;;;;;1999.90;999.90;;;-6.90;99.90;;;;;;4959799;28;20135;-77
2022/12/13 07:46:11;;;;;;;1999.90;999.90;;;-6.90;99.90;;;;;;4959613;28;20046;-77
2022/12/13 07:48:37;;;;;;;1999.90;999.90;;;-6.80;99.90;;;;;;4961208;28;20036;-77
2022/12/13 07:51:05;;;;;;;1999.90;999.90;;;-6.80;99.90;;;;;;4957280;28;20115;-77
2022/12/13 07:53:32;;;;;;;1999.90;999.90;;;-6.70;99.90;;;;;;4958194;28;20046;-77
2022/12/13 07:56:01;;;;;;;1999.90;999.90;;;-6.70;99.90;;;;;;4957630;28;20043;-77
2022/12/13 07:58:28;;;;;;;1999.90;999.90;;;-6.70;99.90;;;;;;4958118;28;20059;-77
2022/12/13 08:01:05;;;;;;;1999.90;999.90;;;-6.60;99.90;;;;;;4957367;28;20494;-77
2022/12/13 08:03:31;;;;;;;1999.90;999.90;;;-6.40;99.90;;;;;;4956763;28;20032;-77
2022/12/13 08:06:08;;;;;;;1999.90;999.90;;;-6.40;99.90;;;;;;4958087;28;20044;-77
2022/12/13 08:08:34;;;;;;;1999.90;999.90;;;-6.30;99.90;;;;;;4958228;28;20488;-77
2022/12/13 08:11:05;;;;;;;1999.90;999.90;;;-6.20;99.90;;;;;;4957773;28;20075;-77
2022/12/13 08:13:31;;;;;;;1999.90;999.90;;;-6.00;99.90;;;;;;4956945;28;20060;-76
2022/12/13 08:15:59;;;;;;;1999.90;999.90;;;-6.00;99.90;;;;;;4959859;28;20043;-75
2022/12/13 08:18:24;;;;;;;1999.90;999.90;;;-5.90;99.90;;;;;;4957271;28;20099;-76
2022/12/13 08:20:50;;;;;;;1999.90;999.90;;;-5.80;99.90;;;;;;4956178;28;20486;-75
2022/12/13 08:23:15;;;;;;;1999.90;999.90;;;-5.70;99.90;;;;;;4956742;28;20469;-76
2022/12/13 08:25:41;;;;;;;1999.90;999.90;;;-5.70;99.90;;;;;;4957022;28;20032;-75
2022/12/13 08:28:06;;;;;;;1999.90;999.90;;;-5.60;99.90;;;;;;4957044;28;20044;-76
2022/12/13 08:30:32;;;;;;;1999.90;999.90;;;-5.40;99.90;;;;;;4956183;28;20063;-77
2022/12/13 08:32:58;;;;;;;1999.90;999.90;;;-5.30;99.90;;;;;;4957659;28;20032;-76
2022/12/13 08:35:27;;;;;;;1999.90;999.90;;;-5.20;99.90;;;;;;4957707;28;20118;-74
2022/12/13 08:37:53;;;;;;;1999.90;999.90;;;-5.20;99.90;;;;;;4958063;28;20032;-75
2022/12/13 08:40:19;;;;;;;1999.90;999.90;;;-5.10;99.90;;;;;;4956130;28;20032;-75
2022/12/13 08:42:44;;;;;;;1999.90;999.90;;;-4.90;99.90;;;;;;4971911;28;20019;-76
2022/12/13 08:45:10;;;;;;;1999.90;999.90;;;-4.90;99.90;;;;;;4981746;28;20040;-76
2022/12/13 08:47:36;;;;;;;1999.90;999.90;;;-4.80;99.90;;;;;;4963613;28;20036;-75
2022/12/13 08:50:02;;;;;;;1999.90;999.90;;;-4.70;99.90;;;;;;4957376;28;20039;-75
2022/12/13 08:52:27;;;;;;;1999.90;999.90;;;-4.50;99.90;;;;;;4957702;28;20055;-75
2022/12/13 08:54:53;;;;;;;1999.90;999.90;;;-4.50;99.90;;;;;;4956734;28;20031;-77
2022/12/13 08:57:18;;;;;;;1999.90;999.90;;;-4.50;99.90;;;;;;4957686;28;20118;-75
2022/12/13 08:59:44;;;;;;;1999.90;999.90;;;-4.40;99.90;;;;;;4957674;28;20166;-75
2022/12/13 09:02:13;;;;;;;1999.90;999.90;;;-4.30;99.90;;;;;;4956779;28;20047;-75
2022/12/13 09:04:39;;;;;;;1999.90;999.90;;;-4.30;99.90;;;;;;4957343;28;20032;-76
2022/12/13 09:07:04;;;;;;;1999.90;999.90;;;-4.20;99.90;;;;;;4957400;28;20091;-75
2022/12/13 09:09:30;;;;;;;1999.90;999.90;;;-4.10;99.90;;;;;;4955734;28;20036;-75
2022/12/13 09:11:56;;;;;;;1999.90;999.90;;;-4.10;99.90;;;;;;4957047;28;20035;-78
2022/12/13 09:14:21;;;;;;;1999.90;999.90;;;-4.00;99.90;;;;;;4956834;28;20036;-75
2022/12/13 09:16:47;;;;;;;1999.90;999.90;;;-3.90;99.90;;;;;;4957266;28;20047;-75
2022/12/13 09:19:13;;;;;;;1999.90;999.90;;;-3.90;99.90;;;;;;4957545;28;20039;-75
2022/12/13 09:21:38;;;;;;;1999.90;999.90;;;-3.80;99.90;;;;;;4956660;28;20047;-75
2022/12/13 09:24:04;;;;;;;1999.90;999.90;;;-3.70;99.90;;;;;;4955711;28;20130;-75
2022/12/13 09:26:30;;;;;;;1999.90;999.90;;;-3.70;99.90;;;;;;4956981;28;20155;-75
2022/12/13 09:28:55;;;;;;;1999.90;999.90;;;-3.60;99.90;;;;;;4956924;28;20035;-75
2022/12/13 09:31:21;;;;;;;1999.90;999.90;;;-3.60;99.90;;;;;;4956175;28;20371;-75
2022/12/13 09:33:47;;;;;;;1999.90;999.90;;;-3.50;99.90;;;;;;4956985;28;20038;-77
2022/12/13 09:36:16;;;;;;;1999.90;999.90;;;-3.50;99.90;;;;;;4956777;28;20046;-76
2022/12/13 09:38:42;;;;;;;1999.90;999.90;;;-3.40;99.90;;;;;;4957431;28;20031;-75
2022/12/13 09:41:28;;;;;;;1999.90;999.90;;;-3.40;99.90;;;;;;4956504;28;20032;-74
2022/12/13 09:43:57;;;;;;;1999.90;999.90;;;-3.40;99.90;;;;;;4958432;28;20645;-74
2022/12/13 09:46:34;;;;;;;1999.90;999.90;;;-3.40;99.90;;;;;;4956914;28;20044;-78
2022/12/13 09:49:02;;;;;;;1999.90;999.90;;;-3.30;99.90;;;;;;4956136;28;20063;-73
2022/12/13 09:51:29;;;;;;;1999.90;999.90;;;-3.20;99.90;;;;;;4956223;28;20406;-74
2022/12/13 09:53:54;;;;;;;1999.90;999.90;;;-3.20;99.90;;;;;;4957014;28;20043;-74
2022/12/13 09:56:22;;;;;;;1999.90;999.90;;;-3.10;99.90;;;;;;4955281;28;20040;-75
2022/12/13 09:58:51;;;;;;;1999.90;999.90;;;-3.10;99.90;;;;;;4956814;28;20032;-75
2022/12/13 10:01:17;;;;;;;1999.90;999.90;;;-3.10;99.90;;;;;;4955014;28;20042;-77
2022/12/13 10:03:49;;;;;;;1999.90;999.90;;;-3.00;99.90;;;;;;4955103;28;20473;-76
2022/12/13 10:06:20;;;;;;;1999.90;999.90;;;-3.00;99.90;;;;;;4956944;28;20043;-75
2022/12/13 10:08:53;;;;;;;1999.90;999.90;;;-2.90;99.90;;;;;;4954868;28;20508;-75
2022/12/13 10:11:20;;;;;;;1999.90;999.90;;;-3.00;99.90;;;;;;4955500;28;20040;-77
2022/12/13 10:13:58;;;;;;;1999.90;999.90;;;-2.90;99.90;;;;;;4954752;28;20038;-76
2022/12/13 10:16:30;;;;;;;1999.90;999.90;;;-2.90;99.90;;;;;;4956049;28;20044;-77
2022/12/13 10:18:56;;;;;;;1999.90;999.90;;;-2.90;99.90;;;;;;4956171;28;20035;-77
2022/12/13 10:21:37;;;;;;;1999.90;999.90;;;-2.90;99.90;;;;;;4955449;28;20042;-76
2022/12/13 10:24:26;;;;;;;1999.90;999.90;;;-2.80;99.90;;;;;;4956071;28;20042;-76
2022/12/13 10:26:52;;;;;;;1999.90;999.90;;;-2.80;99.90;;;;;;4956374;28;20040;-76
2022/12/13 10:29:18;;;;;;;1999.90;999.90;;;-2.70;99.90;;;;;;4956025;28;20402;-76
2022/12/13 10:31:47;;;;;;;1999.90;999.90;;;-2.70;99.90;;;;;;4953775;28;20110;-76
2022/12/13 10:34:28;;;;;;;1999.90;999.90;;;-2.70;99.90;;;;;;4954622;28;20078;-76
2022/12/13 10:36:54;;;;;;;1999.90;999.90;;;-2.60;99.90;;;;;;4955915;28;20043;-77
2022/12/13 10:39:39;;;;;;;1999.90;999.90;;;-2.60;99.90;;;;;;4956097;28;20036;-76
2022/12/13 10:42:17;;;;;;;1999.90;999.90;;;-2.50;99.90;;;;;;4954143;28;20035;-76
2022/12/13 10:44:42;;;;;;;1999.90;999.90;;;-2.50;99.90;;;;;;4955779;28;20055;-77
2022/12/13 10:47:21;;;;;;;1999.90;999.90;;;-2.50;99.90;;;;;;4956016;28;20505;-77
2022/12/13 10:49:50;;;;;;;1999.90;999.90;;;-2.60;99.90;;;;;;4957297;28;20036;-78
2022/12/13 10:52:28;;;;;;;1999.90;999.90;;;-2.60;99.90;;;;;;4955522;28;20421;-79
2022/12/13 10:54:55;;;;;;;1999.90;999.90;;;-2.50;99.90;;;;;;4954215;28;20090;-78
2022/12/13 10:57:21;;;;;;;1999.90;999.90;;;-2.50;99.90;;;;;;4954395;28;20552;-78
2022/12/13 10:59:49;;;;;;;1999.90;999.90;;;-2.50;99.90;;;;;;4956090;28;20185;-76
2022/12/13 11:02:36;;;;;;;1999.90;999.90;;;-2.50;99.90;;;;;;4956367;28;20070;-76
2022/12/13 11:05:16;;;;;;;1999.90;999.90;;;-2.50;99.90;;;;;;4957746;28;20122;-77
2022/12/13 11:07:42;;;;;;;1999.90;999.90;;;-2.50;99.90;;;;;;4957930;28;20078;-77
2022/12/13 11:10:34;;;;;;;1999.90;999.90;;;-2.40;99.90;;;;;;4959250;28;20031;-77
2022/12/13 11:13:03;;;;;;;1999.90;999.90;;;-2.40;99.90;;;;;;4956141;28;20036;-77
2022/12/13 11:15:32;;;;;;;1999.90;999.90;;;-2.30;99.90;;;;;;4996903;23;20069;-78
2022/12/13 11:18:04;;;;;;;1999.90;999.90;;;-2.30;99.90;;;;;;4997846;28;20085;-78
2022/12/13 11:20:33;;;;;;;1999.90;999.90;;;-2.30;99.90;;;;;;4999422;28;20115;-79
2022/12/13 11:23:36;;;;;;;1999.90;999.90;;;-2.30;99.90;;;;;;4991795;28;20039;-77
2022/12/13 11:26:09;;;;;;;1999.90;999.90;;;-2.30;99.90;;;;;;4974821;28;20039;-77
2022/12/13 11:29:03;;;;;;;1999.90;999.90;;;-2.30;99.90;;;;;;4976933;28;20114;-77
2022/12/13 11:31:42;;;;;;;1999.90;999.90;;;-2.20;99.90;;;;;;4977795;28;20073;-76
2022/12/13 11:34:17;;;;;;;1999.90;999.90;;;-2.20;99.90;;;;;;4976243;28;20047;-77
2022/12/13 11:36:55;;;;;;;1999.90;999.90;;;-2.20;99.90;;;;;;4977765;28;20046;-76
2022/12/13 11:39:49;;;;;;;1999.90;999.90;;;-2.10;99.90;;;;;;4976548;28;20042;-77
2022/12/13 11:42:39;;;;;;;1999.90;999.90;;;-2.10;99.90;;;;;;4971000;28;20050;-76
2022/12/13 11:45:30;;;;;;;1999.90;999.90;;;-2.10;99.90;;;;;;4976293;28;20492;-76
2022/12/13 11:48:08;;;;;;;1999.90;999.90;;;-2.10;99.90;;;;;;4978160;28;20047;-77
2022/12/13 11:50:40;;;;;;;1999.90;999.90;;;-2.20;99.90;;;;;;4976450;28;20035;-76
2022/12/13 11:53:45;;;;;;;1999.90;999.90;;;-2.10;99.90;;;;;;4976472;28;20035;-76
2022/12/13 11:56:40;;;;;;;1999.90;999.90;;;-2.00;99.90;;;;;;4977804;28;20047;-77
2022/12/13 11:59:26;;;;;;;1999.90;999.90;;;-2.00;99.90;;;;;;4977105;28;20043;-76
2022/12/13 12:02:00;;;;;;;1999.90;999.90;;;-1.90;99.90;;;;;;4977305;28;20106;-77
2022/12/13 12:04:33;;;;;;;1999.90;999.90;;;-1.80;99.90;;;;;;4977821;28;20039;-76
2022/12/13 12:07:13;;;;;;;1999.90;999.90;;;-1.70;99.90;;;;;;4977871;28;20036;-77
2022/12/13 12:09:46;;;;;;;1999.90;999.90;;;-1.70;99.90;;;;;;4975825;28;20039;-77
2022/12/13 12:12:20;;;;;;;1999.90;999.90;;;-1.60;99.90;;;;;;4975970;28;20035;-76
2022/12/13 12:14:50;;;;;;;1999.90;999.90;;;-1.60;99.90;;;;;;4977153;28;20497;-76
2022/12/13 12:17:22;;;;;;;1999.90;999.90;;;-1.60;99.90;;;;;;4975925;28;20208;-76
2022/12/13 12:19:52;;;;;;;1999.90;999.90;;;-1.60;99.90;;;;;;4977428;28;20033;-76
2022/12/13 12:22:49;;;;;;;1999.90;999.90;;;-1.60;99.90;;;;;;4975758;28;20039;-76
2022/12/13 12:25:43;;;;;;;1999.90;999.90;;;-1.50;99.90;;;;;;4974732;28;20121;-76
2022/12/13 12:28:39;;;;;;;1999.90;999.90;;;-1.50;99.90;;;;;;4976642;28;20094;-80
2022/12/13 12:31:11;;;;;;;1999.90;999.90;;;-1.50;99.90;;;;;;4975917;28;20062;-76
2022/12/13 12:34:15;;;;;;;1999.90;999.90;;;-1.50;99.90;;;;;;4976627;28;20045;-76
2022/12/13 12:37:20;;;;;;;1999.90;999.90;;;-1.50;99.90;;;;;;4955324;28;20053;-77
2022/12/13 12:40:34;;;;;;;1999.90;999.90;;;-1.40;99.90;;;;;;4936101;29;20072;-77
2022/12/13 12:43:19;;;;;;;1999.90;999.90;;;-1.40;99.90;;;;;;4879916;29;20044;-76
2022/12/13 12:46:01;;;;;;;1999.90;999.90;;;-1.30;99.90;;;;;;4973717;28;20090;-76
2022/12/13 12:48:45;;;;;;;1999.90;999.90;;;-1.30;99.90;;;;;;4975749;28;20066;-75
2022/12/13 12:51:38;;;;;;;1999.90;999.90;;;-1.20;99.90;;;;;;4975195;28;20548;-77
2022/12/13 12:54:21;;;;;;;1999.90;999.90;;;-1.10;99.90;;;;;;4977270;28;20078;-77
2022/12/13 12:57:02;;;;;;;1999.90;999.90;;;-1.10;99.90;;;;;;4976405;28;20545;-77
2022/12/13 13:00:17;;;;;;;1999.90;999.90;;;-1.00;99.90;;;;;;4975362;28;20031;-77
2022/12/13 13:03:07;;;;;;;1999.90;999.90;;;-1.10;99.90;;;;;;4985425;28;20047;-77
2022/12/13 13:05:45;;;;;;;1999.90;999.90;;;-1.10;99.90;;;;;;4976368;28;20573;-77
2022/12/13 13:08:19;;;;;;;1999.90;999.90;;;-1.10;99.90;;;;;;4976434;28;20078;-77
2022/12/13 13:10:45;;;;;;;1999.90;999.90;;;-1.00;99.90;;;;;;4976282;28;20035;-77
2022/12/13 13:13:45;;;;;;;1999.90;999.90;;;-0.90;99.90;;;;;;4976667;28;20086;-78
2022/12/13 13:16:26;;;;;;;1999.90;999.90;;;-1.00;99.90;;;;;;4975718;28;20429;-77
2022/12/13 13:18:54;;;;;;;1999.90;999.90;;;-1.00;99.90;;;;;;4976295;28;20039;-77
2022/12/13 13:21:22;;;;;;;1999.90;999.90;;;-1.00;99.90;;;;;;4975813;28;20038;-77
2022/12/13 13:24:00;;;;;;;1999.90;999.90;;;-1.00;99.90;;;;;;4974857;28;20472;-77
2022/12/13 13:26:30;;;;;;;1999.90;999.90;;;-1.00;99.90;;;;;;4976133;28;20042;-78
2022/12/13 13:29:21;;;;;;;1999.90;999.90;;;-0.90;99.90;;;;;;4975727;28;20054;-77
2022/12/13 13:32:15;;;;;;;1999.90;999.90;;;-1.00;99.90;;;;;;4976030;28;20066;-77
2022/12/13 13:34:45;;;;;;;1999.90;999.90;;;-1.00;99.90;;;;;;4968778;28;20035;-77
2022/12/13 13:37:20;;;;;;;1999.90;999.90;;;-1.00;99.90;;;;;;4975811;28;20038;-77
2022/12/13 13:39:59;;;;;;;1999.90;999.90;;;-1.00;99.90;;;;;;4976047;28;20077;-77
2022/12/13 13:42:29;;;;;;;1999.90;999.90;;;-1.00;99.90;;;;;;4976375;28;20031;-77
2022/12/13 13:45:18;;;;;;;1999.90;999.90;;;-1.00;99.90;;;;;;4976799;28;20094;-78
2022/12/13 13:48:02;;;;;;;1999.90;999.90;;;-1.10;99.90;;;;;;4974555;28;20046;-77
2022/12/13 13:51:18;;;;;;;1999.90;999.90;;;-1.10;99.90;;;;;;4975426;28;20111;-77
2022/12/13 13:54:13;;;;;;;1999.90;999.90;;;-1.00;99.90;;;;;;4958300;28;20055;-77
2022/12/13 13:57:13;;;;;;;1999.90;999.90;;;-1.00;99.90;;;;;;4938883;28;20056;-78
2022/12/13 14:00:10;;;;;;;1999.90;999.90;;;-1.00;99.90;;;;;;4973858;28;20027;-77
2022/12/13 14:03:22;;;;;;;1999.90;999.90;;;-1.00;99.90;;;;;;4975602;28;20476;-78
2022/12/13 14:06:10;;;;;;;1999.90;999.90;;;-1.00;99.90;;;;;;4952282;28;20382;-77
2022/12/13 14:09:04;;;;;;;1999.90;999.90;;;-1.00;99.90;;;;;;4975988;28;20827;-76
2022/12/13 14:12:00;;;;;;;1999.90;999.90;;;-1.10;99.90;;;;;;4975395;28;20032;-77
2022/12/13 14:14:38;;;;;;;1999.90;999.90;;;-1.20;99.90;;;;;;4975760;28;20118;-75
2022/12/13 14:17:31;;;;;;;1999.90;999.90;;;-1.30;99.90;;;;;;4975004;28;20050;-77
2022/12/13 14:20:14;;;;;;;1999.90;999.90;;;-1.30;99.90;;;;;;4974038;28;20046;-76
2022/12/13 14:22:45;;;;;;;1999.90;999.90;;;-1.30;99.90;;;;;;4975776;28;20196;-84
2022/12/13 14:25:37;;;;;;;1999.90;999.90;;;-1.30;99.90;;;;;;4974775;28;20035;-77
2022/12/13 14:28:21;;;;;;;1999.90;999.90;;;-1.40;99.90;;;;;;4977664;28;20035;-77
2022/12/13 14:30:47;;;;;;;1999.90;999.90;;;-1.40;99.90;;;;;;4974662;28;20163;-78
2022/12/13 14:33:23;;;;;;;1999.90;999.90;;;-1.40;99.90;;;;;;4976751;28;20114;-81
2022/12/13 14:35:54;;;;;;;1999.90;999.90;;;-1.40;99.90;;;;;;4976481;28;20083;-81
2022/12/13 14:38:28;;;;;;;1999.90;999.90;;;-1.50;99.90;;;;;;5000752;28;20092;-80
2022/12/13 14:40:57;;;;;;;1999.90;999.90;;;-1.50;99.90;;;;;;5012551;28;20069;-77
2022/12/13 14:43:33;;;;;;;1999.90;999.90;;;-1.60;99.90;;;;;;5013794;28;20818;-78
2022/12/13 14:46:00;;;;;;;1999.90;999.90;;;-1.70;99.90;;;;;;5014324;28;20066;-77
2022/12/13 14:48:28;;;;;;;1999.90;999.90;;;-1.70;99.90;;;;;;5014352;28;20030;-78
2022/12/13 14:50:54;;;;;;;1999.90;999.90;;;-1.80;99.90;;;;;;5016248;28;20042;-78
2022/12/13 14:53:30;;;;;;;1999.90;999.90;;;-1.80;99.90;;;;;;5016465;28;20046;-77
2022/12/13 14:56:09;;;;;;;1999.90;999.90;;;-1.90;99.90;;;;;;5017584;28;20042;-78
2022/12/13 14:58:36;;;;;;;1999.90;999.90;;;-1.90;99.90;;;;;;5016305;28;20034;-79
2022/12/13 15:01:04;;;;;;;1999.90;999.90;;;-2.00;99.90;;;;;;5017616;28;20068;-78
2022/12/13 15:03:30;;;;;;;1999.90;999.90;;;-2.00;99.90;;;;;;5017725;28;20479;-78
2022/12/13 15:05:58;;;;;;;1999.90;999.90;;;-2.10;99.90;;;;;;5016125;28;20038;-77
2022/12/13 15:08:25;;;;;;;1999.90;999.90;;;-2.10;99.90;;;;;;5017600;28;20070;-75
2022/12/13 15:10:58;;;;;;;1999.90;999.90;;;-2.20;99.90;;;;;;5017723;28;20495;-74
2022/12/13 15:13:40;;;;;;;1999.90;999.90;;;-2.20;99.90;;;;;;5018231;28;20030;-74
2022/12/13 15:16:21;;;;;;;1999.90;999.90;;;-2.30;99.90;;;;;;5016632;28;20153;-75
2022/12/13 15:19:17;;;;;;;1999.90;999.90;;;-2.30;99.90;;;;;;5017438;28;20031;-75
2022/12/13 15:21:56;;;;;;;1999.90;999.90;;;-2.30;99.90;;;;;;5015944;28;20093;-75
2022/12/13 15:24:35;;;;;;;1999.90;999.90;;;-2.30;99.90;;;;;;5017491;28;20061;-75
2022/12/13 15:27:01;;;;;;;1999.90;999.90;;;-2.40;99.90;;;;;;5017072;28;20073;-74
2022/12/13 15:29:30;;;;;;;1999.90;999.90;;;-2.40;99.90;;;;;;5015833;28;20037;-74
2022/12/13 15:31:56;;;;;;;1999.90;999.90;;;-2.50;99.90;;;;;;5015630;28;20395;-74
2022/12/13 15:34:27;;;;;;;1999.90;999.90;;;-2.50;99.90;;;;;;5015779;28;20080;-75
2022/12/13 15:37:13;;;;;;;1999.90;999.90;;;-2.50;99.90;;;;;;5016861;28;20046;-75
2022/12/13 15:39:43;;;;;;;1999.90;999.90;;;-2.50;99.90;;;;;;5017239;28;20126;-75
2022/12/13 15:42:18;;;;;;;1999.90;999.90;;;-2.50;99.90;;;;;;5017221;28;20045;-75
2022/12/13 15:44:47;;;;;;;1999.90;999.90;;;-2.60;99.90;;;;;;5016559;28;20085;-75
2022/12/13 15:47:15;;;;;;;1999.90;999.90;;;-2.60;99.90;;;;;;5015411;28;20085;-75
2022/12/13 15:50:03;;;;;;;1999.90;999.90;;;-2.60;99.90;;;;;;5016719;28;20034;-75
2022/12/13 15:52:38;;;;;;;1999.90;999.90;;;-2.60;99.90;;;;;;5017000;28;20034;-75
2022/12/13 15:55:07;;;;;;;1999.90;999.90;;;-2.60;99.90;;;;;;5015982;28;20113;-75
2022/12/13 15:57:50;;;;;;;1999.90;999.90;;;-2.70;99.90;;;;;;5016267;28;20039;-75
2022/12/13 16:00:16;;;;;;;1999.90;999.90;;;-2.70;99.90;;;;;;5013919;28;20035;-75
2022/12/13 16:02:50;;;;;;;1999.90;999.90;;;-2.70;99.90;;;;;;5015307;28;20038;-75
2022/12/13 16:05:37;;;;;;;1999.90;999.90;;;-2.80;99.90;;;;;;5015254;28;20030;-75
2022/12/13 16:08:06;;;;;;;1999.90;999.90;;;-2.80;99.90;;;;;;5016062;28;20530;-75
2022/12/13 16:10:32;;;;;;;1999.90;999.90;;;-2.80;99.90;;;;;;5016514;28;20027;-75
2022/12/13 16:13:05;;;;;;;1999.90;999.90;;;-2.80;99.90;;;;;;5015225;28;20038;-74
2022/12/13 16:15:46;;;;;;;1999.90;999.90;;;-2.80;99.90;;;;;;5015929;28;20519;-75
2022/12/13 16:18:17;;;;;;;1999.90;999.90;;;-2.80;99.90;;;;;;5016752;28;20045;-75
2022/12/13 16:20:44;;;;;;;1999.90;999.90;;;-2.80;99.90;;;;;;5016505;28;20040;-75
2022/12/13 16:23:10;;;;;;;1999.90;999.90;;;-2.80;99.90;;;;;;5016545;28;20046;-75
2022/12/13 16:25:35;;;;;;;1999.90;999.90;;;-2.80;99.90;;;;;;5014794;28;20125;-75
2022/12/13 16:28:01;;;;;;;1999.90;999.90;;;-2.80;99.90;;;;;;5016311;28;20066;-75
2022/12/13 16:30:47;;;;;;;1999.90;999.90;;;-2.90;99.90;;;;;;5015976;28;20038;-75
2022/12/13 16:33:13;;;;;;;1999.90;999.90;;;-2.90;99.90;;;;;;5016062;28;20117;-75
2022/12/13 16:35:39;;;;;;;1999.90;999.90;;;-2.90;99.90;;;;;;5014255;28;20400;-74
2022/12/13 16:38:04;;;;;;;1999.90;999.90;;;-2.90;99.90;;;;;;5016341;28;20505;-75
2022/12/13 16:40:31;;;;;;;1999.90;999.90;;;-2.90;99.90;;;;;;5016003;28;20034;-74
2022/12/13 16:43:01;;;;;;;1999.90;999.90;;;-2.90;99.90;;;;;;5016206;28;20117;-75
2022/12/13 16:45:29;;;;;;;1999.90;999.90;;;-2.90;99.90;;;;;;5014470;28;20838;-75
2022/12/13 16:47:54;;;;;;;1999.90;999.90;;;-3.00;99.90;;;;;;5014545;28;20039;-74
2022/12/13 16:50:20;;;;;;;1999.90;999.90;;;-3.00;99.90;;;;;;5016349;28;20042;-76
2022/12/13 16:52:47;;;;;;;1999.90;999.90;;;-2.90;99.90;;;;;;5016647;28;20079;-76
2022/12/13 16:55:12;;;;;;;1999.90;999.90;;;-2.90;99.90;;;;;;5014302;28;20530;-76
2022/12/13 16:57:38;;;;;;;1999.90;999.90;;;-2.90;99.90;;;;;;5015988;28;20118;-76
2022/12/13 17:00:08;;;;;;;1999.90;999.90;;;-2.90;99.90;;;;;;5016038;28;20428;-79
2022/12/13 17:02:34;;;;;;;1999.90;999.90;;;-2.80;99.90;;;;;;5014714;28;20062;-76
2022/12/13 17:05:00;;;;;;;1999.90;999.90;;;-2.80;99.90;;;;;;5015663;28;20034;-76
2022/12/13 17:07:25;;;;;;;1999.90;999.90;;;-2.80;99.90;;;;;;5015332;28;20101;-76
2022/12/13 17:09:51;;;;;;;1999.90;999.90;;;-2.80;99.90;;;;;;5015406;28;20373;-76
2022/12/13 17:12:17;;;;;;;1999.90;999.90;;;-2.60;99.90;;;;;;5013482;28;20113;-76
2022/12/13 17:14:42;;;;;;;1999.90;999.90;;;-2.70;99.90;;;;;;5013966;28;20396;-76
2022/12/13 17:17:08;;;;;;;1999.90;999.90;;;-2.60;99.90;;;;;;5016150;28;20043;-76
2022/12/13 17:19:33;;;;;;;1999.90;999.90;;;-2.70;99.90;;;;;;5015672;28;20027;-76
2022/12/13 17:21:59;;;;;;;1999.90;999.90;;;-2.70;99.90;;;;;;5015557;28;20042;-76
2022/12/13 17:24:24;;;;;;;1999.90;999.90;;;-2.70;99.90;;;;;;5015382;28;20026;-77